createdAt,value
2022-12-12T00:03:31.403Z,65.61
2022-12-12T00:08:52.406Z,66.11
2022-12-12T00:14:13.717Z,66.50
2022-12-12T00:19:34.443Z,66.04
2022-12-12T00:24:55.209Z,65.99
2022-12-12T00:30:15.808Z,66.67
2022-12-12T00:35:36.447Z,66.59
2022-12-12T00:40:59.452Z,66.63
2022-12-12T00:46:23.287Z,66.92
2022-12-12T00:51:45.065Z,67.12
2022-12-12T00:57:06.022Z,67.35
2022-12-12T01:02:28.442Z,66.75
2022-12-12T01:07:49.837Z,67.27
2022-12-12T01:13:10.716Z,67.73
2022-12-12T01:18:31.416Z,67.85
2022-12-12T01:23:52.188Z,68.04
2022-12-12T01:29:13.074Z,67.74
2022-12-12T01:34:33.692Z,68.01
2022-12-12T01:39:54.391Z,67.57
2022-12-12T01:45:52.455Z,67.10
2022-12-12T01:51:17.866Z,67.80
2022-12-12T01:56:41.331Z,67.47
2022-12-12T02:02:02.338Z,68.02
2022-12-12T02:07:22.905Z,67.69
2022-12-12T02:12:44.048Z,68.46
2022-12-12T02:18:18.866Z,68.49
2022-12-12T02:24:13.634Z,68.41
2022-12-12T02:30:08.035Z,68.19
2022-12-12T02:35:28.931Z,67.93
2022-12-12T02:40:59.570Z,67.74
2022-12-12T02:46:45.299Z,67.86
2022-12-12T02:52:09.029Z,68.74
2022-12-12T02:57:29.929Z,68.04
2022-12-12T03:03:27.285Z,68.21
2022-12-12T03:09:17.294Z,68.13
2022-12-12T03:15:01.889Z,68.23
2022-12-12T03:20:48.888Z,68.23
2022-12-12T03:26:21.644Z,68.73
2022-12-12T03:31:49.144Z,68.68
2022-12-12T03:37:23.463Z,68.22
2022-12-12T03:42:53.294Z,68.80
2022-12-12T03:48:40.906Z,68.16
2022-12-12T03:54:33.883Z,69.16
2022-12-12T04:00:00.392Z,69.14
2022-12-12T04:05:33.579Z,68.92
2022-12-12T04:11:19.450Z,68.67
2022-12-12T04:16:44.473Z,68.95
2022-12-12T04:22:27.458Z,68.52
2022-12-12T04:27:53.572Z,69.50
2022-12-12T04:33:20.667Z,68.70
2022-12-12T04:38:44.476Z,69.14
2022-12-12T04:44:09.722Z,68.80
2022-12-12T04:49:33.588Z,69.14
2022-12-12T04:55:24.550Z,68.98
2022-12-12T05:00:52.081Z,68.54
2022-12-12T05:06:21.657Z,68.81
2022-12-12T05:11:42.819Z,69.19
2022-12-12T05:17:09.184Z,69.23
2022-12-12T05:22:30.044Z,69.53
2022-12-12T05:27:50.747Z,69.10
2022-12-12T05:33:11.364Z,69.38
2022-12-12T05:38:32.032Z,69.29
2022-12-12T05:43:52.655Z,68.84
2022-12-12T05:49:13.332Z,68.70
2022-12-12T05:54:34.147Z,68.86
2022-12-12T05:59:54.845Z,70.96
2022-12-12T06:05:15.997Z,71.00
2022-12-12T06:10:37.956Z,69.56
2022-12-12T06:15:58.723Z,69.36
2022-12-12T06:21:19.418Z,68.97
2022-12-12T06:26:40.271Z,69.12
2022-12-12T06:32:00.951Z,69.22
2022-12-12T06:37:21.617Z,69.82
2022-12-12T06:42:48.044Z,69.97
2022-12-12T06:48:09.513Z,70.02
2022-12-12T06:53:30.160Z,69.51
2022-12-12T06:58:51.370Z,70.08
2022-12-12T07:04:13.086Z,69.80
2022-12-12T07:09:34.009Z,70.26
2022-12-12T07:14:55.021Z,70.02
2022-12-12T07:20:15.922Z,70.08
2022-12-12T07:25:41.604Z,70.32
2022-12-12T07:31:06.333Z,70.35
2022-12-12T07:36:27.467Z,69.84
2022-12-12T07:41:48.435Z,70.12
2022-12-12T07:47:13.946Z,70.48
2022-12-12T07:52:34.620Z,69.98
2022-12-12T07:57:55.757Z,70.42
2022-12-12T08:03:16.711Z,69.81
2022-12-12T08:08:37.620Z,70.71
2022-12-12T08:13:58.569Z,70.37
2022-12-12T08:19:19.411Z,70.46
2022-12-12T08:24:40.498Z,70.37
2022-12-12T08:30:03.925Z,70.70
2022-12-12T08:35:24.524Z,70.89
2022-12-12T08:40:45.171Z,70.12
2022-12-12T08:46:09.921Z,71.07
2022-12-12T08:51:32.977Z,71.10
2022-12-12T08:56:53.839Z,70.24
2022-12-12T09:02:14.739Z,70.46
2022-12-12T09:07:36.402Z,70.67
2022-12-12T09:12:57.054Z,71.02
2022-12-12T09:18:18.537Z,71.35
2022-12-12T09:23:39.527Z,71.42
2022-12-12T09:29:00.337Z,72.62
2022-12-12T09:34:21.262Z,71.02
2022-12-12T09:39:42.074Z,70.93
2022-12-12T09:45:06.611Z,70.80
2022-12-12T09:50:38.026Z,70.72
2022-12-12T09:56:19.247Z,70.90
2022-12-12T10:02:05.714Z,70.73
2022-12-12T10:08:08.303Z,71.79
2022-12-12T10:13:31.600Z,71.57
2022-12-12T10:18:54.040Z,71.02
2022-12-12T10:24:39.945Z,71.02
2022-12-12T10:30:13.931Z,71.63
2022-12-12T10:36:15.442Z,70.44
2022-12-12T10:41:51.330Z,71.27
2022-12-12T10:47:13.002Z,71.26
2022-12-12T10:52:35.524Z,71.05
2022-12-12T10:58:04.227Z,71.09
2022-12-12T11:03:57.528Z,71.15
2022-12-12T11:09:23.034Z,71.50
2022-12-12T11:14:50.169Z,71.13
2022-12-12T11:20:18.037Z,71.42
2022-12-12T11:25:38.839Z,71.87
2022-12-12T11:31:04.726Z,72.06
2022-12-12T11:36:34.216Z,71.16
2022-12-12T11:42:16.934Z,71.34
2022-12-12T11:47:44.750Z,72.00
2022-12-12T11:53:08.567Z,71.28
2022-12-12T11:58:40.161Z,72.21
2022-12-12T12:04:10.022Z,71.15
2022-12-12T12:09:54.113Z,71.28
2022-12-12T12:15:35.480Z,71.56
2022-12-12T12:21:05.228Z,72.13
2022-12-12T12:26:36.041Z,71.50
2022-12-12T12:32:15.557Z,71.93
2022-12-12T12:37:39.427Z,71.71
2022-12-12T12:43:21.642Z,71.83
2022-12-12T12:48:54.916Z,71.76
2022-12-12T12:54:21.886Z,72.16
2022-12-12T12:59:51.657Z,71.83
2022-12-12T13:05:24.455Z,71.47
2022-12-12T13:10:52.535Z,71.93
2022-12-12T13:16:32.621Z,72.17
2022-12-12T13:22:08.460Z,72.12
2022-12-12T13:27:41.094Z,71.83
2022-12-12T13:33:17.737Z,72.62
2022-12-12T13:38:39.466Z,71.80
2022-12-12T13:44:00.588Z,71.68
2022-12-12T13:49:30.628Z,71.72
2022-12-12T13:55:13.764Z,72.09
2022-12-12T14:00:35.427Z,72.08
2022-12-12T14:06:09.261Z,72.99
2022-12-12T14:11:35.192Z,72.38
2022-12-12T14:16:57.102Z,71.56
2022-12-12T14:22:37.423Z,71.99
2022-12-12T14:28:16.435Z,71.57
2022-12-12T14:33:57.780Z,71.87
2022-12-12T14:39:45.603Z,71.69
2022-12-12T14:45:23.733Z,72.24
2022-12-12T14:50:49.094Z,71.95
2022-12-12T14:56:18.479Z,71.83
2022-12-12T15:01:58.062Z,72.00
2022-12-12T15:07:24.563Z,71.98
2022-12-12T15:12:45.227Z,72.33
2022-12-12T15:18:06.288Z,71.88
2022-12-12T15:23:26.853Z,71.92
2022-12-12T15:28:49.294Z,72.31
2022-12-12T15:34:33.873Z,73.72
2022-12-12T15:40:07.106Z,72.47
2022-12-12T15:45:33.810Z,71.70
2022-12-12T15:50:58.056Z,71.40
2022-12-12T15:56:22.044Z,71.83
2022-12-12T16:01:43.298Z,72.17
2022-12-12T16:07:20.398Z,72.65
2022-12-12T16:13:01.850Z,71.94
2022-12-12T16:18:24.321Z,72.65
2022-12-12T16:23:45.111Z,72.40
2022-12-12T16:29:05.796Z,71.90
2022-12-12T16:34:26.450Z,72.25
2022-12-12T16:39:47.162Z,71.85
2022-12-12T16:45:07.958Z,72.42
2022-12-12T16:50:28.875Z,72.03
2022-12-12T16:55:51.241Z,71.31
2022-12-12T17:01:17.071Z,71.38
2022-12-12T17:06:37.713Z,71.90
2022-12-12T17:11:58.333Z,71.71
2022-12-12T17:17:19.067Z,71.38
2022-12-12T17:22:40.789Z,70.85
2022-12-12T17:28:01.529Z,71.25
2022-12-12T17:33:22.242Z,70.47
2022-12-12T17:38:43.069Z,70.43
2022-12-12T17:44:03.820Z,70.57
2022-12-12T17:49:24.746Z,70.89
2022-12-12T17:55:53.938Z,70.22
2022-12-12T18:00:26.231Z,70.99
2022-12-12T18:05:46.992Z,70.60
2022-12-12T18:11:09.578Z,71.09
2022-12-12T18:16:32.279Z,70.92
2022-12-12T18:22:02.042Z,70.81
2022-12-12T18:27:23.250Z,70.85
2022-12-12T18:32:44.122Z,70.56
2022-12-12T18:38:05.301Z,70.96
2022-12-12T18:43:27.762Z,70.79
2022-12-12T18:48:49.240Z,71.13
2022-12-12T18:54:15.057Z,70.52
2022-12-12T18:59:36.967Z,71.47
2022-12-12T19:04:57.699Z,70.96
2022-12-12T19:10:19.031Z,71.14
2022-12-12T19:15:40.170Z,71.18
2022-12-12T19:21:09.517Z,70.93
2022-12-12T19:26:30.797Z,71.07
2022-12-12T19:31:58.336Z,71.26
2022-12-12T19:37:19.528Z,70.72
2022-12-12T19:42:40.811Z,70.13
2022-12-12T19:48:01.579Z,71.14
2022-12-12T19:53:22.432Z,71.49
2022-12-12T19:58:44.096Z,70.86
2022-12-12T20:04:18.216Z,70.83
2022-12-12T20:09:39.043Z,71.06
2022-12-12T20:15:01.691Z,70.16
2022-12-12T20:20:22.594Z,70.68
2022-12-12T20:25:43.308Z,69.88
2022-12-12T20:31:04.119Z,69.68
2022-12-12T20:36:27.838Z,69.13
2022-12-12T20:41:50.134Z,69.33
2022-12-12T20:47:14.494Z,69.92
2022-12-12T20:52:35.059Z,68.53
2022-12-12T20:57:55.863Z,69.21
2022-12-12T21:03:16.588Z,68.69
2022-12-12T21:08:37.280Z,68.34
2022-12-12T21:13:57.859Z,67.92
2022-12-12T21:19:19.452Z,68.11
2022-12-12T21:24:40.378Z,68.14
2022-12-12T21:30:01.039Z,68.51
2022-12-12T21:35:23.758Z,68.55
2022-12-12T21:40:45.813Z,68.20
2022-12-12T21:46:09.641Z,67.61
2022-12-12T21:51:30.460Z,67.66
2022-12-12T21:56:52.095Z,68.31
2022-12-12T22:02:13.598Z,67.75
2022-12-12T22:07:35.047Z,68.00
2022-12-12T22:12:57.666Z,68.29
2022-12-12T22:18:18.230Z,68.09
2022-12-12T22:23:39.283Z,68.32
2022-12-12T22:29:03.648Z,67.81
2022-12-12T22:34:25.677Z,67.68
2022-12-12T22:39:47.268Z,67.18
2022-12-12T22:45:08.357Z,67.75
2022-12-12T22:50:28.957Z,67.30
2022-12-12T22:55:49.827Z,67.42
2022-12-12T23:01:19.568Z,67.22
2022-12-12T23:06:41.155Z,67.38
2022-12-12T23:12:02.327Z,67.58
2022-12-12T23:17:23.247Z,67.06
2022-12-12T23:22:46.491Z,66.58
2022-12-12T23:28:13.636Z,67.05
2022-12-12T23:33:34.637Z,66.25
2022-12-12T23:38:56.963Z,65.90
2022-12-12T23:44:19.675Z,66.94
2022-12-12T23:49:40.636Z,66.33
2022-12-12T23:55:01.475Z,65.82
